Time;durP1;ratioP1;P1;durP2;ratioP2;P2;SDS_P1;SDS_P2;PMS_P1;PMS_P2;Temp;Humidity;BMP_temperature;BMP_pressure;BME280_temperature;BME280_humidity;BME280_pressure;Samples;Min_cycle;Max_cycle;Signal;HPM_P1;HPM_P2
2023/10/03 00:00:56;;;;;;;30.38;18.88;;;17.90;99.90;;;;;;5054975;28;20047;-79
2023/10/03 00:03:21;;;;;;;32.25;18.27;;;17.90;99.90;;;;;;5054876;28;20036;-79
2023/10/03 00:05:48;;;;;;;30.27;17.45;;;17.80;99.90;;;;;;5044842;28;20044;-78
2023/10/03 00:08:14;;;;;;;34.70;18.67;;;17.80;99.90;;;;;;5052199;28;20102;-79
2023/10/03 00:10:40;;;;;;;31.10;17.45;;;17.90;99.90;;;;;;5035582;28;20040;-78
2023/10/03 00:13:11;;;;;;;30.60;17.55;;;17.90;99.90;;;;;;5058595;28;20043;-78
2023/10/03 00:15:43;;;;;;;32.00;17.83;;;17.90;99.90;;;;;;5070189;28;20055;-81
2023/10/03 00:18:17;;;;;;;32.85;17.90;;;17.90;99.90;;;;;;5072296;28;20048;-80
2023/10/03 00:20:43;;;;;;;32.63;18.13;;;17.90;99.90;;;;;;5071969;28;20556;-79
2023/10/03 00:23:09;;;;;;;30.83;18.17;;;17.80;99.90;;;;;;5070215;28;20174;-79
2023/10/03 00:25:35;;;;;;;30.40;17.92;;;17.80;99.90;;;;;;5054344;28;20040;-79
2023/10/03 00:28:01;;;;;;;29.45;18.55;;;17.80;99.90;;;;;;5055552;28;20504;-79
2023/10/03 00:30:28;;;;;;;28.17;18.98;;;17.80;99.90;;;;;;5071974;28;20125;-80
2023/10/03 00:32:57;;;;;;;32.13;18.20;;;17.80;99.90;;;;;;5070417;28;20396;-79
2023/10/03 00:35:24;;;;;;;32.72;18.48;;;17.70;99.90;;;;;;5060457;28;20037;-79
2023/10/03 00:37:51;;;;;;;30.13;18.20;;;17.70;99.90;;;;;;5055059;28;20037;-79
2023/10/03 00:42:52;;;;;;;32.65;17.63;;;17.70;99.90;;;;;;5069715;28;20049;-80
2023/10/03 00:45:25;;;;;;;30.33;18.23;;;17.70;99.90;;;;;;5068980;28;20123;-79
2023/10/03 00:47:55;;;;;;;30.77;18.65;;;17.70;99.90;;;;;;5071702;28;20040;-79
2023/10/03 00:50:25;;;;;;;33.05;18.40;;;17.70;99.90;;;;;;5054556;28;20106;-79
2023/10/03 00:52:55;;;;;;;29.60;16.63;;;17.70;99.90;;;;;;5055170;28;20037;-79
2023/10/03 00:55:22;;;;;;;28.83;17.20;;;17.70;99.90;;;;;;5053304;28;20055;-79
2023/10/03 00:57:48;;;;;;;29.60;16.42;;;17.80;99.90;;;;;;5054978;28;20131;-80
2023/10/03 01:00:16;;;;;;;32.08;17.33;;;18.10;99.90;;;;;;5054961;28;20124;-80
2023/10/03 01:02:50;;;;;;;31.17;17.00;;;18.20;99.90;;;;;;5054194;28;20032;-79
2023/10/03 01:05:16;;;;;;;33.13;16.17;;;18.30;99.90;;;;;;5068633;28;20511;-80
2023/10/03 01:07:45;;;;;;;31.60;17.38;;;18.30;99.90;;;;;;5054821;28;20067;-80
2023/10/03 01:10:12;;;;;;;32.40;17.20;;;18.30;99.90;;;;;;5071754;28;20037;-79
2023/10/03 01:12:38;;;;;;;29.50;15.35;;;18.20;99.90;;;;;;5053972;28;20036;-80
2023/10/03 01:15:10;;;;;;;30.08;16.38;;;18.20;99.90;;;;;;5069632;28;20085;-80
2023/10/03 01:17:37;;;;;;;32.58;16.75;;;18.20;99.90;;;;;;5054795;28;20511;-80
2023/10/03 01:20:08;;;;;;;32.40;16.15;;;18.00;99.90;;;;;;5050712;28;20040;-80
2023/10/03 01:22:37;;;;;;;31.27;16.13;;;18.00;99.90;;;;;;5052199;28;20089;-80
2023/10/03 01:25:06;;;;;;;30.05;16.50;;;17.90;99.90;;;;;;5067575;28;20032;-80
2023/10/03 01:27:32;;;;;;;30.13;15.95;;;17.90;99.90;;;;;;5069248;28;20040;-80
2023/10/03 01:29:57;;;;;;;29.95;15.95;;;17.90;99.90;;;;;;5088085;28;20036;-80
2023/10/03 01:32:28;;;;;;;30.30;17.17;;;17.90;99.90;;;;;;5053836;28;20041;-80
2023/10/03 01:34:54;;;;;;;31.57;15.37;;;17.90;99.90;;;;;;5071681;28;20113;-79
2023/10/03 01:37:19;;;;;;;30.63;15.73;;;17.90;99.90;;;;;;5052290;28;20501;-80
2023/10/03 01:39:45;;;;;;;28.95;15.02;;;17.80;99.90;;;;;;5067701;28;20094;-80
2023/10/03 01:42:11;;;;;;;30.20;16.13;;;17.90;99.90;;;;;;5050944;28;20040;-80
2023/10/03 01:44:36;;;;;;;30.58;14.88;;;18.00;99.90;;;;;;5034588;28;20468;-80
2023/10/03 01:47:03;;;;;;;27.42;13.50;;;18.10;99.90;;;;;;5079874;28;20041;-79
2023/10/03 01:49:29;;;;;;;32.10;15.68;;;18.10;99.90;;;;;;5053555;28;20094;-79
2023/10/03 01:51:55;;;;;;;29.50;14.73;;;18.20;99.90;;;;;;5054565;28;20044;-79
2023/10/03 01:54:20;;;;;;;28.38;15.13;;;18.10;99.90;;;;;;5058152;28;20047;-79
2023/10/03 01:56:46;;;;;;;31.60;16.02;;;18.20;99.90;;;;;;5072646;28;20048;-79
2023/10/03 01:59:11;;;;;;;33.50;15.50;;;18.20;99.90;;;;;;5074590;28;20040;-79
2023/10/03 02:01:37;;;;;;;31.48;15.90;;;18.20;99.90;;;;;;5074594;28;20075;-79
2023/10/03 02:04:03;;;;;;;29.38;14.75;;;18.10;99.90;;;;;;5057096;28;20045;-79
2023/10/03 02:06:29;;;;;;;30.13;13.80;;;18.10;99.90;;;;;;5056117;28;20404;-79
2023/10/03 02:08:56;;;;;;;31.50;16.10;;;18.10;99.90;;;;;;5074583;28;20059;-79
2023/10/03 02:11:26;;;;;;;28.20;14.18;;;18.10;99.90;;;;;;5074797;28;20453;-79
2023/10/03 02:13:52;;;;;;;31.95;16.15;;;18.10;99.90;;;;;;5057080;28;20037;-79
2023/10/03 02:16:20;;;;;;;29.63;15.38;;;18.00;99.90;;;;;;5057690;28;20084;-79
2023/10/03 02:18:45;;;;;;;33.03;15.63;;;17.90;99.90;;;;;;5071629;28;20489;-79
2023/10/03 02:21:16;;;;;;;32.40;16.00;;;17.90;99.90;;;;;;5074293;28;20127;-79
2023/10/03 02:23:42;;;;;;;31.40;15.35;;;17.90;99.90;;;;;;5057520;28;20119;-79
2023/10/03 02:26:10;;;;;;;29.80;14.88;;;17.80;99.90;;;;;;5074128;28;20040;-79
2023/10/03 02:28:40;;;;;;;30.92;15.68;;;17.90;99.90;;;;;;5072424;28;20063;-79
2023/10/03 02:31:07;;;;;;;32.08;15.40;;;18.00;99.90;;;;;;5072774;28;20047;-79
2023/10/03 02:33:39;;;;;;;31.90;15.07;;;17.90;99.90;;;;;;5057408;28;20037;-80
2023/10/03 02:36:06;;;;;;;29.95;13.35;;;17.90;99.90;;;;;;5057534;28;20511;-80
2023/10/03 02:38:36;;;;;;;31.65;15.45;;;17.90;99.90;;;;;;5056001;28;20404;-79
2023/10/03 02:41:02;;;;;;;26.95;14.32;;;17.90;99.90;;;;;;5057115;28;20063;-80
2023/10/03 02:43:30;;;;;;;30.50;14.70;;;17.80;99.90;;;;;;5056760;28;20510;-80
2023/10/03 02:45:56;;;;;;;29.83;14.90;;;17.90;99.90;;;;;;5057063;28;20037;-80
2023/10/03 02:48:22;;;;;;;33.10;16.77;;;17.90;99.90;;;;;;5071868;28;20540;-79
2023/10/03 02:50:50;;;;;;;30.90;15.13;;;17.90;99.90;;;;;;5072789;28;20044;-79
2023/10/03 02:53:20;;;;;;;33.58;16.20;;;17.90;99.90;;;;;;5057044;28;20044;-80
2023/10/03 02:55:47;;;;;;;33.95;15.45;;;17.80;99.90;;;;;;5073449;28;20501;-80
2023/10/03 02:58:13;;;;;;;31.95;15.45;;;17.80;99.90;;;;;;5055193;28;20050;-80
2023/10/03 03:00:40;;;;;;;32.03;15.40;;;17.90;99.90;;;;;;5057008;28;20079;-80
2023/10/03 03:03:06;;;;;;;28.70;13.32;;;17.80;99.90;;;;;;5073643;28;20048;-80
2023/10/03 03:05:36;;;;;;;32.00;15.20;;;17.80;99.90;;;;;;5055788;28;20396;-80
2023/10/03 03:10:45;;;;;;;30.38;15.35;;;17.90;99.90;;;;;;5073536;28;20097;-80
2023/10/03 03:13:13;;;;;;;29.13;13.93;;;17.90;99.90;;;;;;5055816;28;20481;-80
2023/10/03 03:15:45;;;;;;;29.50;13.40;;;17.90;99.90;;;;;;5073146;28;20051;-80
2023/10/03 03:18:12;;;;;;;;;;;17.90;99.90;;;;;;5073586;28;20492;-79
2023/10/03 03:20:38;;;;;;;30.88;14.80;;;17.90;99.90;;;;;;5071974;28;19943;-79
2023/10/03 03:23:03;;;;;;;28.67;14.05;;;17.90;99.90;;;;;;5054958;28;20757;-79
2023/10/03 03:25:38;;;;;;;31.15;13.95;;;18.00;99.90;;;;;;5056209;28;20041;-79
2023/10/03 03:28:13;;;;;;;29.55;13.50;;;18.00;99.90;;;;;;5072910;28;20044;-79
2023/10/03 03:30:46;;;;;;;30.90;14.38;;;18.00;99.90;;;;;;5071517;28;20123;-79
2023/10/03 03:33:20;;;;;;;33.92;15.50;;;18.10;99.90;;;;;;5071972;28;20551;-79
2023/10/03 03:35:47;;;;;;;31.85;14.27;;;18.00;99.90;;;;;;5072858;28;20047;-79
2023/10/03 03:38:20;;;;;;;30.55;13.88;;;18.10;99.90;;;;;;5072705;28;20048;-79
2023/10/03 03:40:56;;;;;;;27.33;13.73;;;18.10;99.90;;;;;;5071407;28;20048;-79
2023/10/03 03:43:22;;;;;;;29.02;13.07;;;18.10;99.90;;;;;;5055270;28;20036;-79
2023/10/03 03:45:48;;;;;;;31.83;14.52;;;18.20;99.90;;;;;;5055868;28;20041;-79
2023/10/03 03:48:14;;;;;;;32.28;13.55;;;18.20;99.90;;;;;;5055061;28;20036;-79
2023/10/03 03:50:41;;;;;;;28.52;13.18;;;18.20;99.90;;;;;;5071321;28;20085;-79
2023/10/03 03:53:07;;;;;;;35.10;14.75;;;18.20;99.90;;;;;;5071550;28;20024;-79
2023/10/03 03:55:35;;;;;;;33.60;15.10;;;18.20;99.90;;;;;;5055584;28;20445;-78
2023/10/03 03:58:14;;;;;;;30.15;13.18;;;18.30;99.90;;;;;;5071590;28;20044;-78
2023/10/03 04:00:44;;;;;;;26.50;13.07;;;18.30;99.90;;;;;;5054831;28;20037;-79
2023/10/03 04:03:13;;;;;;;29.70;12.93;;;18.20;99.90;;;;;;5054738;28;20036;-79
2023/10/03 04:05:39;;;;;;;28.17;13.05;;;18.30;99.90;;;;;;5055465;28;20051;-79
2023/10/03 04:08:05;;;;;;;28.83;13.85;;;18.20;99.90;;;;;;5072290;28;20041;-79
2023/10/03 04:10:33;;;;;;;30.15;12.82;;;18.20;99.90;;;;;;5070853;28;20036;-78
2023/10/03 04:12:59;;;;;;;28.48;13.80;;;18.30;99.90;;;;;;5071240;28;20047;-78
2023/10/03 04:15:25;;;;;;;26.60;12.95;;;18.30;99.90;;;;;;5070622;28;20041;-78
2023/10/03 04:17:50;;;;;;;31.00;13.88;;;18.30;99.90;;;;;;5069716;28;20040;-78
2023/10/03 04:20:23;;;;;;;25.85;12.57;;;18.30;99.90;;;;;;5055543;28;20040;-78
2023/10/03 04:22:50;;;;;;;30.90;14.38;;;18.30;99.90;;;;;;5069468;28;20182;-78
2023/10/03 04:25:19;;;;;;;29.33;12.63;;;18.30;99.90;;;;;;5054680;28;20044;-78
2023/10/03 04:27:51;;;;;;;25.98;12.27;;;18.20;99.90;;;;;;5055332;28;20039;-78
2023/10/03 04:30:21;;;;;;;29.80;14.32;;;18.40;99.90;;;;;;5055469;28;20044;-78
2023/10/03 04:32:49;;;;;;;25.60;11.63;;;18.30;99.90;;;;;;5046367;28;20110;-79
2023/10/03 04:35:18;;;;;;;26.45;13.02;;;18.40;99.90;;;;;;5072214;28;20040;-78
2023/10/03 04:37:44;;;;;;;28.58;12.32;;;18.50;99.90;;;;;;5071937;28;20041;-78
2023/10/03 04:40:15;;;;;;;27.45;12.70;;;18.50;99.90;;;;;;5071780;28;20051;-79
2023/10/03 04:42:45;;;;;;;28.42;11.77;;;18.60;99.90;;;;;;5053401;28;20047;-78
2023/10/03 04:45:14;;;;;;;27.15;11.43;;;18.60;99.90;;;;;;5055157;28;20409;-79
2023/10/03 04:47:41;;;;;;;25.55;12.25;;;18.60;99.90;;;;;;5054123;28;20469;-78
2023/10/03 04:50:08;;;;;;;26.23;11.52;;;18.60;99.90;;;;;;5071779;28;20548;-78
2023/10/03 04:52:34;;;;;;;26.67;11.82;;;18.60;99.90;;;;;;5066948;28;20466;-78
2023/10/03 04:54:59;;;;;;;26.15;11.50;;;18.60;99.90;;;;;;5054005;28;20072;-77
2023/10/03 04:57:27;;;;;;;26.67;12.10;;;18.60;99.90;;;;;;5055070;28;20063;-78
2023/10/03 04:59:56;;;;;;;26.90;11.65;;;18.60;99.90;;;;;;5055025;28;20094;-78
2023/10/03 05:02:22;;;;;;;25.50;11.68;;;18.60;99.90;;;;;;5052390;28;20072;-78
2023/10/03 05:04:47;;;;;;;25.05;10.93;;;18.70;99.90;;;;;;5071561;28;20040;-78
2023/10/03 05:07:13;;;;;;;26.33;12.15;;;18.70;99.90;;;;;;5054918;28;20127;-78
2023/10/03 05:09:39;;;;;;;28.17;11.68;;;18.80;99.90;;;;;;5054884;28;20048;-78
2023/10/03 05:12:04;;;;;;;25.50;12.48;;;18.80;99.90;;;;;;5053982;28;20437;-78
2023/10/03 05:14:30;;;;;;;26.92;12.65;;;18.80;99.90;;;;;;5036381;28;20040;-78
2023/10/03 05:17:00;;;;;;;26.35;9.57;;;18.70;99.90;;;;;;5034948;28;20041;-78
2023/10/03 05:19:25;;;;;;;23.60;11.05;;;18.80;99.90;;;;;;5043580;28;20094;-78
2023/10/03 05:21:52;;;;;;;29.17;13.80;;;18.80;99.90;;;;;;5054669;28;20442;-78
2023/10/03 05:24:19;;;;;;;27.17;11.32;;;18.80;99.90;;;;;;5069417;28;20049;-78
2023/10/03 05:26:44;;;;;;;28.02;12.13;;;18.90;99.90;;;;;;5054707;28;20043;-77
2023/10/03 05:29:10;;;;;;;24.80;11.30;;;18.90;99.90;;;;;;5073691;28;20029;-78
2023/10/03 05:31:40;;;;;;;22.30;10.55;;;18.90;99.90;;;;;;5057757;28;20406;-78
2023/10/03 05:34:07;;;;;;;29.33;11.18;;;18.90;99.90;;;;;;5065770;28;20056;-78
2023/10/03 05:36:32;;;;;;;25.00;11.00;;;18.90;99.90;;;;;;5067813;28;20090;-78
2023/10/03 05:38:58;;;;;;;21.90;10.60;;;19.00;99.90;;;;;;5057170;28;20056;-78
2023/10/03 05:41:24;;;;;;;26.52;11.63;;;18.90;99.90;;;;;;5058315;28;20369;-78
2023/10/03 05:43:50;;;;;;;23.25;9.55;;;18.90;99.90;;;;;;5063106;28;20103;-78
2023/10/03 05:46:15;;;;;;;22.75;10.20;;;18.90;99.90;;;;;;5056820;28;20396;-78
2023/10/03 05:48:42;;;;;;;21.40;8.52;;;18.90;99.90;;;;;;5054923;28;20044;-78
2023/10/03 05:51:09;;;;;;;23.58;10.18;;;19.00;99.90;;;;;;5055381;28;20617;-78
2023/10/03 05:53:34;;;;;;;22.10;9.98;;;19.10;99.90;;;;;;5060935;28;20045;-78
2023/10/03 05:56:01;;;;;;;23.08;10.05;;;19.10;99.90;;;;;;5074102;28;20429;-78
2023/10/03 05:58:27;;;;;;;27.45;10.75;;;19.00;99.90;;;;;;5056300;28;20067;-78
2023/10/03 06:00:52;;;;;;;23.65;9.43;;;19.00;99.90;;;;;;5052051;28;20064;-78
2023/10/03 06:03:18;;;;;;;23.63;10.73;;;19.10;99.90;;;;;;5073794;28;20045;-78
2023/10/03 06:05:45;;;;;;;26.40;11.50;;;19.20;99.90;;;;;;5052817;28;20119;-78
2023/10/03 06:08:12;;;;;;;21.63;9.95;;;19.10;99.90;;;;;;5058041;28;20374;-78
2023/10/03 06:10:39;;;;;;;21.52;9.07;;;19.20;99.90;;;;;;5065167;28;20040;-78
2023/10/03 06:13:10;;;;;;;16.92;8.45;;;19.20;99.90;;;;;;5054920;28;20033;-78
2023/10/03 06:15:40;;;;;;;;;;;19.10;99.90;;;;;;5052897;28;20036;-79
2023/10/03 06:18:06;;;;;;;20.35;9.45;;;19.20;99.90;;;;;;5054433;28;20395;-79
2023/10/03 06:20:31;;;;;;;20.88;10.02;;;19.20;99.90;;;;;;5054565;28;20045;-78
2023/10/03 06:22:57;;;;;;;22.13;9.55;;;19.20;99.90;;;;;;5057491;28;20040;-78
2023/10/03 06:25:24;;;;;;;20.67;9.52;;;19.20;99.90;;;;;;5073264;28;20048;-78
2023/10/03 06:27:49;;;;;;;16.48;8.18;;;19.10;99.90;;;;;;5072818;28;20042;-78
2023/10/03 06:30:15;;;;;;;19.65;8.32;;;19.10;99.90;;;;;;5074105;28;20044;-78
2023/10/03 06:32:41;;;;;;;21.85;8.93;;;19.10;99.90;;;;;;5056459;28;20079;-78
2023/10/03 06:35:09;;;;;;;19.27;8.80;;;19.10;99.90;;;;;;5054081;28;20047;-78
2023/10/03 06:37:35;;;;;;;25.00;8.55;;;19.20;99.90;;;;;;5051431;28;20051;-78
2023/10/03 06:40:01;;;;;;;20.83;7.88;;;19.20;99.90;;;;;;5073967;28;20044;-78
2023/10/03 06:42:27;;;;;;;19.55;7.55;;;19.10;99.90;;;;;;5055953;28;20489;-78
2023/10/03 06:44:52;;;;;;;16.08;7.82;;;19.10;99.90;;;;;;5073865;28;20040;-78
2023/10/03 06:47:20;;;;;;;18.80;5.97;;;19.00;99.90;;;;;;5054892;28;20037;-78
2023/10/03 06:49:46;;;;;;;17.45;7.15;;;19.20;99.90;;;;;;5073531;28;20051;-78
2023/10/03 06:52:11;;;;;;;17.23;6.18;;;19.10;99.90;;;;;;5072800;28;20032;-78
2023/10/03 06:54:38;;;;;;;18.05;5.57;;;19.00;99.90;;;;;;5056330;28;20484;-78
2023/10/03 06:57:04;;;;;;;15.27;5.85;;;19.00;99.90;;;;;;5056806;28;20087;-78
2023/10/03 06:59:29;;;;;;;15.90;5.97;;;19.00;99.90;;;;;;5054666;28;20040;-78
2023/10/03 07:01:55;;;;;;;21.33;5.38;;;18.90;99.90;;;;;;5056767;28;20416;-79
2023/10/03 07:04:21;;;;;;;15.68;4.90;;;19.00;99.90;;;;;;5055907;28;20421;-78
2023/10/03 07:06:46;;;;;;;15.93;4.60;;;19.00;99.90;;;;;;5056790;28;20478;-78
2023/10/03 07:09:13;;;;;;;13.18;3.97;;;18.90;99.90;;;;;;5072338;28;20036;-79
2023/10/03 07:11:39;;;;;;;14.02;4.50;;;19.00;99.90;;;;;;5090177;28;20049;-78
2023/10/03 07:14:05;;;;;;;12.30;4.40;;;19.00;99.90;;;;;;5071880;28;20025;-78
2023/10/03 07:16:37;;;;;;;13.32;4.03;;;18.90;99.90;;;;;;5073500;28;20141;-79
2023/10/03 07:19:04;;;;;;;11.65;3.00;;;18.90;99.90;;;;;;5070253;28;20489;-78
2023/10/03 07:21:29;;;;;;;13.88;4.15;;;18.80;99.90;;;;;;5056366;28;20082;-78
2023/10/03 07:23:56;;;;;;;15.07;4.10;;;18.80;99.90;;;;;;5072980;28;20045;-78
2023/10/03 07:26:22;;;;;;;13.55;4.18;;;18.70;99.90;;;;;;5055825;28;20040;-78
2023/10/03 07:28:47;;;;;;;13.60;3.83;;;18.80;99.90;;;;;;5072903;28;20481;-78
2023/10/03 07:31:14;;;;;;;10.32;2.85;;;18.70;99.90;;;;;;5052830;28;20047;-78
2023/10/03 07:33:43;;;;;;;14.77;3.10;;;18.70;99.90;;;;;;5070272;28;20024;-79
2023/10/03 07:36:09;;;;;;;8.93;3.30;;;18.80;99.90;;;;;;5050406;28;20048;-79
2023/10/03 07:38:35;;;;;;;12.65;4.07;;;18.80;99.90;;;;;;5053713;28;20036;-79
2023/10/03 07:41:09;;;;;;;13.02;3.72;;;18.60;99.90;;;;;;5053875;28;20043;-79
2023/10/03 07:43:35;;;;;;;12.23;3.30;;;18.60;99.90;;;;;;5066962;28;20048;-79
2023/10/03 07:46:01;;;;;;;11.43;3.08;;;18.70;99.90;;;;;;5051515;28;20055;-78
2023/10/03 07:48:26;;;;;;;11.85;3.50;;;18.70;99.90;;;;;;5035982;28;20116;-79
2023/10/03 07:50:52;;;;;;;12.88;4.50;;;18.80;99.90;;;;;;5053240;28;20058;-78
2023/10/03 07:53:18;;;;;;;9.43;3.50;;;18.70;99.90;;;;;;5068939;28;20037;-79
2023/10/03 07:55:43;;;;;;;15.85;5.05;;;18.50;99.90;;;;;;5043315;28;20056;-78
2023/10/03 07:58:14;;;;;;;13.60;5.03;;;18.30;99.90;;;;;;5067420;28;20044;-76
2023/10/03 08:00:40;;;;;;;13.32;4.88;;;18.20;99.90;;;;;;5055104;28;20515;-76
2023/10/03 08:03:08;;;;;;;13.02;4.45;;;18.10;99.90;;;;;;5053480;28;20086;-77
2023/10/03 08:05:34;;;;;;;13.70;4.20;;;18.00;99.90;;;;;;5070395;28;20401;-77
2023/10/03 08:08:02;;;;;;;10.63;3.70;;;17.90;99.90;;;;;;5083702;28;20033;-78
2023/10/03 08:10:30;;;;;;;11.68;4.13;;;17.90;99.90;;;;;;5072257;28;20143;-77
2023/10/03 08:12:57;;;;;;;10.23;4.30;;;17.80;99.90;;;;;;5053175;28;20040;-77
2023/10/03 08:15:31;;;;;;;9.90;4.03;;;17.70;99.90;;;;;;5069481;28;20040;-77
2023/10/03 08:17:57;;;;;;;15.63;4.40;;;17.70;99.90;;;;;;5066693;28;20044;-78
2023/10/03 08:20:24;;;;;;;11.73;3.85;;;17.60;99.90;;;;;;5052184;28;20166;-77
2023/10/03 08:22:52;;;;;;;13.70;4.38;;;17.60;99.90;;;;;;5054443;28;20033;-78
2023/10/03 08:25:22;;;;;;;13.57;4.25;;;17.50;99.90;;;;;;5053504;28;20035;-78
2023/10/03 08:27:52;;;;;;;13.93;4.13;;;17.50;99.90;;;;;;5068715;28;20044;-77
2023/10/03 08:30:27;;;;;;;17.33;5.47;;;17.50;99.90;;;;;;5068993;28;20534;-78
2023/10/03 08:33:04;;;;;;;13.95;4.00;;;17.50;99.90;;;;;;5052720;28;20076;-77
2023/10/03 08:35:39;;;;;;;15.20;4.07;;;17.50;99.90;;;;;;5046081;28;20045;-77
2023/10/03 08:38:07;;;;;;;11.70;3.80;;;17.40;99.90;;;;;;5069153;28;20497;-78
2023/10/03 08:40:36;;;;;;;11.02;2.90;;;17.40;99.90;;;;;;5049916;28;20052;-78
2023/10/03 08:43:05;;;;;;;10.13;2.50;;;17.50;99.90;;;;;;5068332;28;20044;-77
2023/10/03 08:45:35;;;;;;;9.73;2.33;;;17.50;99.90;;;;;;5064807;28;20055;-78
2023/10/03 08:48:05;;;;;;;10.95;2.17;;;17.60;99.90;;;;;;5059973;28;20445;-78
2023/10/03 08:50:39;;;;;;;9.93;2.55;;;17.50;99.90;;;;;;5053107;28;20085;-76
2023/10/03 08:53:26;;;;;;;9.15;1.85;;;17.50;99.90;;;;;;5059710;28;20500;-76
2023/10/03 08:55:57;;;;;;;8.88;2.10;;;17.50;99.90;;;;;;5062928;28;20136;-76
2023/10/03 08:58:25;;;;;;;8.20;2.00;;;17.40;99.90;;;;;;5069079;28;20052;-76
2023/10/03 09:00:58;;;;;;;8.77;1.75;;;17.40;99.90;;;;;;5054993;28;20500;-76
2023/10/03 09:03:49;;;;;;;9.00;1.92;;;17.50;99.90;;;;;;5072964;28;20450;-76
2023/10/03 09:06:22;;;;;;;7.10;1.58;;;17.40;99.90;;;;;;5059516;28;20049;-76
2023/10/03 09:08:48;;;;;;;7.70;1.35;;;17.50;99.90;;;;;;5039161;28;20036;-76
2023/10/03 09:11:14;;;;;;;7.95;1.35;;;17.50;99.90;;;;;;5046004;28;20037;-76
2023/10/03 09:13:40;;;;;;;8.75;1.55;;;17.50;99.90;;;;;;5054111;28;20055;-76
2023/10/03 09:16:08;;;;;;;5.78;1.10;;;17.50;99.90;;;;;;5075313;28;20400;-76
2023/10/03 09:18:41;;;;;;;4.78;1.00;;;17.50;99.90;;;;;;5058566;28;20044;-76
2023/10/03 09:21:23;;;;;;;8.25;1.23;;;17.60;99.90;;;;;;5058181;28;20044;-76
2023/10/03 09:24:09;;;;;;;5.68;0.80;;;17.50;99.90;;;;;;5052439;28;20072;-75
2023/10/03 09:26:51;;;;;;;6.43;1.17;;;17.60;99.90;;;;;;5077657;28;20040;-75
2023/10/03 09:29:30;;;;;;;;;;;17.40;99.90;;;;;;5082087;28;20041;-75
2023/10/03 09:31:58;;;;;;;4.25;0.85;;;17.30;99.90;;;;;;5067009;28;20349;-75
2023/10/03 09:34:30;;;;;;;9.60;1.00;;;17.30;99.90;;;;;;5074631;28;20045;-76
2023/10/03 09:37:02;;;;;;;2.67;1.25;;;17.30;99.90;;;;;;5075150;28;20098;-75
2023/10/03 09:39:31;;;;;;;;;;;17.20;99.90;;;;;;5075272;28;20055;-75
2023/10/03 09:41:59;;;;;;;6.22;0.82;;;17.10;99.90;;;;;;5056823;28;19916;-75
2023/10/03 09:44:31;;;;;;;3.95;0.60;;;17.00;99.90;;;;;;5074312;28;20039;-75
2023/10/03 09:47:00;;;;;;;3.17;0.90;;;16.90;99.90;;;;;;5075147;28;20040;-75
2023/10/03 09:49:36;;;;;;;2.28;0.63;;;16.80;99.90;;;;;;5057762;28;20033;-75
2023/10/03 09:52:05;;;;;;;3.90;0.70;;;16.80;99.90;;;;;;5056371;28;20051;-75
2023/10/03 09:54:32;;;;;;;3.50;0.70;;;16.80;99.90;;;;;;5074186;28;20032;-75
2023/10/03 09:57:00;;;;;;;3.33;0.50;;;16.70;99.90;;;;;;5073619;28;20044;-75
2023/10/03 09:59:32;;;;;;;4.22;0.60;;;16.70;99.90;;;;;;5056267;28;20505;-75
2023/10/03 10:01:59;;;;;;;4.72;0.60;;;16.60;99.90;;;;;;5056280;28;20067;-75
2023/10/03 10:04:27;;;;;;;3.35;0.70;;;16.50;99.90;;;;;;5072913;28;20215;-75
2023/10/03 10:07:16;;;;;;;3.75;1.02;;;16.50;99.90;;;;;;5056360;28;20401;-75
2023/10/03 10:10:13;;;;;;;4.18;1.33;;;16.60;99.90;;;;;;5072766;28;20032;-75
2023/10/03 10:13:13;;;;;;;3.63;0.63;;;16.50;99.90;;;;;;5036454;28;20486;-75
2023/10/03 10:16:07;;;;;;;3.03;0.73;;;16.50;99.90;;;;;;5036354;28;20056;-75
2023/10/03 10:18:45;;;;;;;4.65;0.80;;;16.50;99.90;;;;;;5048356;28;20053;-75
2023/10/03 10:21:20;;;;;;;6.20;0.93;;;16.50;99.90;;;;;;5046380;28;20131;-76
2023/10/03 10:24:20;;;;;;;4.78;0.70;;;16.50;99.90;;;;;;5048059;28;20087;-75
2023/10/03 10:26:52;;;;;;;1.90;0.60;;;16.50;99.90;;;;;;5070277;28;20032;-75
2023/10/03 10:29:19;;;;;;;3.53;0.75;;;16.50;99.90;;;;;;5055922;28;20090;-76
2023/10/03 10:31:57;;;;;;;4.03;0.77;;;16.60;99.90;;;;;;5072629;28;20387;-76
2023/10/03 10:34:27;;;;;;;4.05;0.60;;;16.50;99.90;;;;;;5067671;28;20055;-75
2023/10/03 10:36:56;;;;;;;2.90;0.88;;;16.50;99.90;;;;;;5067626;28;20044;-76
2023/10/03 10:39:24;;;;;;;2.33;0.65;;;16.40;99.90;;;;;;5072327;28;20508;-75
2023/10/03 10:42:11;;;;;;;5.93;1.00;;;16.50;99.90;;;;;;5055889;28;20036;-75
2023/10/03 10:45:03;;;;;;;5.13;1.23;;;16.50;99.90;;;;;;5070269;28;20136;-75
2023/10/03 10:47:32;;;;;;;5.03;0.90;;;16.50;99.90;;;;;;5055377;28;20044;-76
2023/10/03 10:49:59;;;;;;;4.43;0.85;;;16.60;99.90;;;;;;5086652;28;20036;-75
2023/10/03 10:52:25;;;;;;;8.88;1.02;;;16.60;99.90;;;;;;5071415;28;20036;-76
2023/10/03 10:54:51;;;;;;;6.97;1.20;;;16.50;99.90;;;;;;5034046;28;1035085;-74
2023/10/03 10:57:21;;;;;;;6.25;1.17;;;16.60;99.90;;;;;;5056473;28;20047;-75
2023/10/03 10:59:47;;;;;;;3.63;0.90;;;16.60;99.90;;;;;;5062285;28;20029;-75
2023/10/03 11:02:24;;;;;;;7.13;1.08;;;16.60;99.90;;;;;;5051195;28;20468;-75
2023/10/03 11:04:58;;;;;;;4.45;1.00;;;16.60;99.90;;;;;;5052682;28;20065;-75
2023/10/03 11:07:26;;;;;;;5.50;1.20;;;16.60;99.90;;;;;;5063846;28;20072;-75
2023/10/03 11:09:54;;;;;;;6.50;1.35;;;16.60;99.90;;;;;;5056432;28;20044;-77
2023/10/03 11:12:27;;;;;;;6.80;1.10;;;16.60;99.90;;;;;;5055958;28;20043;-77
2023/10/03 11:14:55;;;;;;;4.45;0.95;;;16.70;99.90;;;;;;5057938;28;20503;-77
2023/10/03 11:17:21;;;;;;;5.22;1.02;;;16.60;99.90;;;;;;5072877;28;20558;-77
2023/10/03 11:19:51;;;;;;;4.15;0.85;;;16.50;99.90;;;;;;5053275;28;20115;-77
2023/10/03 11:22:17;;;;;;;3.97;0.93;;;16.50;99.90;;;;;;5060092;28;20175;-77
2023/10/03 11:24:44;;;;;;;5.60;0.90;;;16.40;99.90;;;;;;5053552;28;20047;-77
2023/10/03 11:27:22;;;;;;;3.75;0.88;;;16.30;99.90;;;;;;5060470;28;20064;-76
2023/10/03 11:29:48;;;;;;;3.58;0.73;;;16.30;99.90;;;;;;5054884;28;20062;-77
2023/10/03 11:32:32;;;;;;;4.60;0.98;;;16.20;99.90;;;;;;5055033;28;20577;-77
2023/10/03 11:34:59;;;;;;;3.20;0.90;;;16.30;99.90;;;;;;5056045;28;20040;-76
2023/10/03 11:37:29;;;;;;;3.28;0.88;;;16.20;99.90;;;;;;5072283;28;20036;-76
2023/10/03 11:40:07;;;;;;;5.03;1.05;;;16.20;99.90;;;;;;5071432;28;20089;-76
2023/10/03 11:42:33;;;;;;;3.42;0.90;;;16.20;99.90;;;;;;5067855;28;20051;-76
2023/10/03 11:45:02;;;;;;;6.40;1.20;;;16.30;99.90;;;;;;5054445;28;20041;-77
2023/10/03 11:47:28;;;;;;;4.40;1.30;;;16.30;99.90;;;;;;5071300;28;20044;-90
2023/10/03 11:49:56;;;;;;;5.57;1.42;;;16.30;99.90;;;;;;5056175;28;20047;-85
2023/10/03 11:52:23;;;;;;;8.13;1.58;;;16.30;99.90;;;;;;5052220;28;20082;-77
2023/10/03 11:54:49;;;;;;;9.30;1.70;;;16.30;99.90;;;;;;5072310;28;20051;-76
2023/10/03 11:57:15;;;;;;;5.32;1.40;;;16.20;99.90;;;;;;5055108;28;20083;-76
2023/10/03 11:59:40;;;;;;;7.70;1.65;;;16.20;99.90;;;;;;5055071;28;20073;-75
2023/10/03 12:02:06;;;;;;;8.23;2.03;;;16.20;99.90;;;;;;5065627;28;20041;-76
2023/10/03 12:04:37;;;;;;;5.32;1.35;;;16.10;99.90;;;;;;5035251;28;20455;-75
2023/10/03 12:07:03;;;;;;;8.02;2.28;;;16.10;99.90;;;;;;5035534;28;20362;-76
2023/10/03 12:09:30;;;;;;;10.52;2.10;;;16.00;99.90;;;;;;5069106;28;20048;-76
2023/10/03 12:11:56;;;;;;;8.20;1.90;;;16.00;99.90;;;;;;5052951;28;20037;-76
2023/10/03 12:14:22;;;;;;;7.97;1.88;;;15.90;99.90;;;;;;5070276;28;20112;-76
2023/10/03 12:16:51;;;;;;;6.82;1.75;;;15.90;99.90;;;;;;5055586;28;20485;-75
2023/10/03 12:19:21;;;;;;;8.65;1.70;;;15.90;99.90;;;;;;5071608;28;20045;-76
2023/10/03 12:21:46;;;;;;;6.55;2.03;;;15.90;99.90;;;;;;5071440;28;20265;-75
2023/10/03 12:24:12;;;;;;;6.78;1.45;;;15.70;99.90;;;;;;5054158;28;20466;-75
2023/10/03 12:26:38;;;;;;;6.82;1.75;;;15.70;99.90;;;;;;5054683;28;20036;-75
2023/10/03 12:29:06;;;;;;;9.50;2.30;;;15.80;99.90;;;;;;5071599;28;20036;-75
2023/10/03 12:31:33;;;;;;;7.55;1.85;;;15.80;99.90;;;;;;5055048;28;20048;-75
2023/10/03 12:34:01;;;;;;;8.85;2.00;;;15.70;99.90;;;;;;5053970;28;20036;-76
2023/10/03 12:36:34;;;;;;;8.13;2.00;;;15.60;99.90;;;;;;5071259;28;20040;-76
2023/10/03 12:39:10;;;;;;;7.13;1.75;;;15.70;99.90;;;;;;5071868;28;20041;-75
2023/10/03 12:41:36;;;;;;;6.25;1.77;;;15.60;99.90;;;;;;5071235;28;20048;-75
2023/10/03 12:44:02;;;;;;;7.95;1.83;;;15.50;99.90;;;;;;5070107;28;20060;-75
2023/10/03 12:46:28;;;;;;;7.15;1.88;;;15.60;99.90;;;;;;5041874;28;20181;-76
2023/10/03 12:48:54;;;;;;;7.45;1.88;;;15.50;99.90;;;;;;5034679;28;20400;-75